Faneromeni — SVKG — position and weather

sailwx.info

Track history (hours):
 
Tides and Currents Weather Stations Pressure Air Temp Water Temp Dewpoint Dewpoint Depression Visibility Wind Speed Wind Dir Waves Ship Positions

Faneromeni

Last reported at 2017-Oct-03 12:36 UTC. Time now 2017-Oct-17 19:13 UTC.
Position S 30°38' E 031°10'.
Warning: this ship's position is 14 days out of date.

Length 230 m; draft 7.9 m.

Type: Ship. MMSI: 240576000.

Date/timePositionNaut miles runAvg speedWind from/ knotsBaromVisibWave heightAir tempDewpointWater temp
2017-Oct-03 12:36S 30°38' E 031°10'110.2
2017-Oct-03 12:29S 30°37' E 031°11'510.3
2017-Oct-03 11:59S 30°34' E 031°16'510.4
2017-Oct-03 11:30S 30°30' E 031°20'810.7
2017-Oct-03 10:47S 30°26' E 031°27'310.7
2017-Oct-03 10:30S 30°24' E 031°30'610.6
2017-Oct-03 09:57S 30°20' E 031°34'510.6
2017-Oct-03 09:30S 30°16' E 031°38'510.5
2017-Oct-03 09:00S 30°12' E 031°43'510.4
2017-Oct-03 08:30S 30°09' E 031°47'510.4
2017-Oct-03 08:00S 30°05' E 031°51'510.5
2017-Oct-03 07:30S 30°02' E 031°56'510.6
2017-Oct-03 07:00S 29°58' E 032°00'1210.5
2017-Oct-03 05:52S 29°51' E 032°11'510.7
2017-Oct-03 05:25S 29°48' E 032°15'710.5
2017-Oct-03 04:42S 29°44' E 032°23'5710.4
2017-Oct-02 23:14S 29°27' E 033°25'910.2
2017-Oct-02 22:24S 29°25' E 033°35'  
Track history (hours):
 
Tides and Currents Weather Stations Pressure Air Temp Water Temp Dewpoint Dewpoint Depression Visibility Wind Speed Wind Dir Waves Ship Positions

Faneromeni

Last reported at 2017-Oct-03 12:36 UTC. Time now 2017-Oct-17 19:13 UTC.
Position S 30°38' E 031°10'.
Warning: this ship's position is 14 days out of date.

Length 230 m; draft 7.9 m.

Type: Ship. MMSI: 240576000.

Date/timePositionNaut miles runAvg speedWind from/ knotsBaromVisibWave heightAir tempDewpointWater temp
2017-Oct-03 12:36S 30°38' E 031°10'110.2
2017-Oct-03 12:29S 30°37' E 031°11'510.3
2017-Oct-03 11:59S 30°34' E 031°16'510.4
2017-Oct-03 11:30S 30°30' E 031°20'810.7
2017-Oct-03 10:47S 30°26' E 031°27'310.7
2017-Oct-03 10:30S 30°24' E 031°30'610.6
2017-Oct-03 09:57S 30°20' E 031°34'510.6
2017-Oct-03 09:30S 30°16' E 031°38'510.5
2017-Oct-03 09:00S 30°12' E 031°43'510.4
2017-Oct-03 08:30S 30°09' E 031°47'510.4
2017-Oct-03 08:00S 30°05' E 031°51'510.5
2017-Oct-03 07:30S 30°02' E 031°56'510.6
2017-Oct-03 07:00S 29°58' E 032°00'1210.5
2017-Oct-03 05:52S 29°51' E 032°11'510.7
2017-Oct-03 05:25S 29°48' E 032°15'710.5
2017-Oct-03 04:42S 29°44' E 032°23'5710.4
2017-Oct-02 23:14S 29°27' E 033°25'910.2
2017-Oct-02 22:24S 29°25' E 033°35'  

Dump ship's entire track history